Time;durP1;ratioP1;P1;durP2;ratioP2;P2;SDS_P1;SDS_P2;PMS_P1;PMS_P2;Temp;Humidity;BMP_temperature;BMP_pressure;BME280_temperature;BME280_humidity;BME280_pressure;Samples;Min_cycle;Max_cycle;Signal;HPM_P1;HPM_P2
2022/07/29 00:02:24;;;;;;;3.00;1.70;;;;;;;15.79;64.69;101849.53;4770286;29;20529;-74
2022/07/29 00:04:51;;;;;;;5.88;1.42;;;;;;;15.76;64.82;101845.06;4786499;29;20109;-74
2022/07/29 00:07:17;;;;;;;1.65;1.30;;;;;;;15.72;64.95;101836.41;4786923;29;20056;-74
2022/07/29 00:09:44;;;;;;;2.80;1.52;;;;;;;15.71;64.72;101848.34;4786526;29;20533;-73
2022/07/29 00:12:23;;;;;;;1.83;1.67;;;;;;;15.67;65.21;101846.53;4786847;29;20055;-74
2022/07/29 00:14:56;;;;;;;1.50;1.33;;;;;;;15.63;65.34;101843.25;4786164;29;20082;-74
2022/07/29 00:17:23;;;;;;;3.25;1.48;;;;;;;15.63;65.26;101834.47;4786299;29;20079;-74
2022/07/29 00:19:51;;;;;;;1.58;1.35;;;;;;;15.59;65.80;101829.28;4786265;29;20532;-74
2022/07/29 00:22:18;;;;;;;4.28;1.40;;;;;;;15.55;65.81;101827.91;4785143;29;20063;-74
2022/07/29 00:24:49;;;;;;;2.08;1.90;;;;;;;15.54;65.98;101826.41;4786347;29;20051;-74
2022/07/29 00:27:17;;;;;;;3.78;1.77;;;;;;;15.53;65.96;101824.91;4786632;29;20060;-76
2022/07/29 00:29:44;;;;;;;3.80;1.75;;;;;;;15.53;66.13;101824.91;4784456;29;20132;-75
2022/07/29 00:32:11;;;;;;;2.25;1.40;;;;;;;15.49;66.31;101818.94;4785950;29;20059;-76
2022/07/29 00:37:24;;;;;;;4.97;1.33;;;;;;;15.46;66.47;101812.53;4786171;29;20067;-76
2022/07/29 00:39:51;;;;;;;5.50;1.30;;;;;;;15.46;66.56;101807.16;4786096;29;20544;-76
2022/07/29 00:42:17;;;;;;;2.10;1.60;;;;;;;15.42;66.55;101809.25;4786485;29;20048;-75
2022/07/29 00:44:44;;;;;;;3.00;1.52;;;;;;;15.39;66.64;101810.13;4785774;29;20327;-76
2022/07/29 00:47:11;;;;;;;2.20;1.77;;;;;;;15.38;66.95;101803.28;4784076;29;20064;-74
2022/07/29 00:49:40;;;;;;;1.73;1.60;;;;;;;15.36;66.83;101800.31;4784723;29;20066;-76
2022/07/29 00:52:08;;;;;;;1.92;1.70;;;;;;;15.35;66.94;101804.91;4786044;29;20564;-76
2022/07/29 00:54:37;;;;;;;3.55;1.55;;;;;;;15.34;67.35;101797.31;4785269;29;20059;-74
2022/07/29 00:57:11;;;;;;;3.03;1.80;;;;;;;15.30;67.26;101799.41;4783899;29;20092;-75
2022/07/29 00:59:38;;;;;;;1.67;1.58;;;;;;;15.29;67.33;101800.59;4785974;29;20074;-75
2022/07/29 01:02:04;;;;;;;1.58;1.42;;;;;;;15.24;67.37;101796.56;4785712;29;20058;-75
2022/07/29 01:04:31;;;;;;;1.55;1.45;;;;;;;15.23;67.56;101794.31;4785545;29;20487;-74
2022/07/29 01:07:01;;;;;;;2.55;1.48;;;;;;;15.20;67.71;101787.91;4784113;29;20056;-74
2022/07/29 01:09:29;;;;;;;2.00;1.80;;;;;;;15.18;67.65;101789.56;4785569;29;20052;-74
2022/07/29 01:12:18;;;;;;;6.65;2.10;;;;;;;15.14;67.74;101786.28;4785953;29;20052;-74
2022/07/29 01:14:46;;;;;;;5.75;1.80;;;;;;;15.12;67.99;101786.72;4788725;29;20154;-74
2022/07/29 01:17:19;;;;;;;2.80;1.60;;;;;;;15.10;68.06;101783.75;4788661;29;20129;-74
2022/07/29 01:19:58;;;;;;;3.60;1.90;;;;;;;15.11;68.11;101781.81;4787609;29;20113;-74
2022/07/29 01:22:38;;;;;;;3.13;1.40;;;;;;;15.09;67.93;101779.56;4788853;29;20502;-74
2022/07/29 01:25:23;;;;;;;2.13;1.88;;;;;;;15.07;68.07;101775.84;4787244;29;20056;-75
2022/07/29 01:28:09;;;;;;;2.20;1.65;;;;;;;15.05;67.74;101778.22;4786266;29;20152;-74
2022/07/29 01:30:39;;;;;;;1.70;1.60;;;;;;;15.00;67.96;101768.84;4787205;29;20051;-74
2022/07/29 01:33:48;;;;;;;1.92;1.50;;;;;;;15.00;68.10;101780.31;4787663;29;20052;-75
2022/07/29 01:36:04;;;;;;;2.42;1.85;;;;;;;14.97;68.47;101775.06;4788361;29;20056;-74
2022/07/29 01:38:31;;;;;;;2.45;1.73;;;;;;;14.96;67.68;101781.63;4787195;29;20678;-74
2022/07/29 01:41:12;;;;;;;2.55;1.77;;;;;;;14.95;68.06;101775.53;4788197;29;20411;-75
2022/07/29 01:43:57;;;;;;;4.88;1.80;;;;;;;14.92;68.15;101779.09;4788630;29;20062;-75
2022/07/29 01:46:33;;;;;;;2.13;1.80;;;;;;;14.91;68.22;101782.22;4788526;29;20127;-74
2022/07/29 01:49:07;;;;;;;2.38;1.92;;;;;;;14.89;68.56;101782.66;4788102;29;20133;-74
2022/07/29 01:51:49;;;;;;;2.40;1.50;;;;;;;14.88;68.52;101786.53;4788568;29;20134;-74
2022/07/29 01:54:20;;;;;;;2.65;1.77;;;;;;;14.84;68.95;101777.88;4788683;29;20409;-74
2022/07/29 01:56:50;;;;;;;2.22;1.90;;;;;;;14.84;68.93;101779.81;4788371;29;20055;-74
2022/07/29 01:59:19;;;;;;;4.25;2.00;;;;;;;14.82;69.01;101782.19;4788344;29;20048;-74
2022/07/29 02:01:49;;;;;;;1.70;1.60;;;;;;;14.81;69.14;101783.38;4772441;29;20079;-75
2022/07/29 02:04:23;;;;;;;2.45;1.88;;;;;;;14.78;69.01;101778.94;4788652;29;20493;-75
2022/07/29 02:07:07;;;;;;;3.83;2.10;;;;;;;14.80;68.93;101776.53;4788244;29;20051;-74
2022/07/29 02:09:36;;;;;;;2.10;2.00;;;;;;;14.75;69.25;101777.88;4786629;29;20490;-74
2022/07/29 02:12:04;;;;;;;2.05;1.95;;;;;;;14.75;69.25;101780.56;4788137;29;20047;-75
2022/07/29 02:14:36;;;;;;;4.30;2.00;;;;;;;14.75;69.37;101782.50;4787781;29;20101;-74
2022/07/29 02:17:02;;;;;;;2.63;2.10;;;;;;;14.74;69.38;101784.44;4786530;29;20059;-74
2022/07/29 02:19:32;;;;;;;3.00;1.92;;;;;;;14.73;69.31;101780.25;4788010;29;20044;-74
2022/07/29 02:22:00;;;;;;;3.63;2.17;;;;;;;14.72;69.49;101781.44;4787610;29;20105;-74
2022/07/29 02:24:28;;;;;;;2.72;2.08;;;;;;;14.72;69.68;101772.66;4786509;29;20055;-74
2022/07/29 02:26:56;;;;;;;2.58;2.05;;;;;;;14.70;69.76;101773.09;4786308;29;20083;-74
2022/07/29 02:29:25;;;;;;;2.35;2.10;;;;;;;14.70;69.44;101769.66;4787841;29;20063;-74
2022/07/29 02:31:53;;;;;;;2.15;2.03;;;;;;;14.68;69.68;101767.44;4787852;29;20056;-74
2022/07/29 02:34:21;;;;;;;4.70;1.98;;;;;;;14.67;69.60;101769.38;4787696;29;20055;-74
2022/07/29 02:36:49;;;;;;;2.22;2.13;;;;;;;14.65;69.72;101768.31;4788073;29;20087;-75
2022/07/29 02:39:18;;;;;;;4.15;2.08;;;;;;;14.64;69.73;101769.50;4787418;29;20052;-74
2022/07/29 02:42:00;;;;;;;2.75;2.50;;;;;;;14.63;69.66;101768.75;4787616;29;20055;-74
2022/07/29 02:44:28;;;;;;;2.35;2.25;;;;;;;14.63;69.90;101773.38;4787744;29;20068;-74
2022/07/29 02:47:30;;;;;;;4.50;2.13;;;;;;;14.62;69.28;101769.94;4787020;29;20066;-74
2022/07/29 02:50:13;;;;;;;4.57;2.15;;;;;;;14.62;69.87;101763.84;4787486;29;20569;-74
2022/07/29 02:52:44;;;;;;;4.28;2.30;;;;;;;14.58;69.96;101758.63;4787521;29;20052;-74
2022/07/29 02:55:29;;;;;;;3.30;2.30;;;;;;;14.59;69.63;101765.47;4785520;29;20070;-75
2022/07/29 02:58:08;;;;;;;3.72;2.15;;;;;;;14.59;69.71;101767.41;4787390;29;20047;-74
2022/07/29 03:00:37;;;;;;;5.07;2.28;;;;;;;14.57;70.33;101770.53;4787479;29;20464;-74
2022/07/29 03:03:09;;;;;;;2.53;2.33;;;;;;;14.57;69.88;101764.41;4787191;29;20056;-75
2022/07/29 03:05:37;;;;;;;2.38;2.10;;;;;;;14.56;70.19;101766.34;4787392;29;20056;-74
2022/07/29 03:08:06;;;;;;;2.92;2.30;;;;;;;14.55;70.20;101762.19;4786806;29;20059;-74
2022/07/29 03:10:34;;;;;;;3.75;2.40;;;;;;;14.53;70.19;101761.13;4787149;29;20098;-74
2022/07/29 03:13:01;;;;;;;2.50;2.30;;;;;;;14.53;70.11;101756.50;4786907;29;20117;-74
2022/07/29 03:15:28;;;;;;;4.60;2.40;;;;;;;14.53;70.14;101761.13;4787119;29;20051;-74
2022/07/29 03:17:56;;;;;;;3.72;2.30;;;;;;;14.51;70.58;101755.47;4786996;29;20060;-74
2022/07/29 03:20:23;;;;;;;5.13;2.53;;;;;;;14.53;70.33;101750.41;4786948;29;20109;-74
2022/07/29 03:22:50;;;;;;;3.70;2.05;;;;;;;14.51;70.24;101744.75;4786635;29;20062;-74
2022/07/29 03:25:18;;;;;;;2.22;1.88;;;;;;;14.50;70.37;101749.34;4787657;29;20055;-74
2022/07/29 03:27:46;;;;;;;3.03;2.35;;;;;;;14.48;70.50;101745.63;4787074;29;20565;-74
2022/07/29 03:30:13;;;;;;;2.72;2.28;;;;;;;14.49;70.65;101747.88;4786953;29;20518;-74
2022/07/29 03:32:48;;;;;;;4.32;2.20;;;;;;;14.47;70.61;101739.53;4787395;29;20047;-74
2022/07/29 03:35:19;;;;;;;4.35;2.47;;;;;;;14.45;70.80;101744.56;4785422;29;20062;-74
2022/07/29 03:37:46;;;;;;;5.97;2.40;;;;;;;14.44;70.68;101740.41;4785070;29;20470;-74
2022/07/29 03:40:21;;;;;;;5.10;2.40;;;;;;;14.44;70.68;101734.28;4786784;29;20113;-74
2022/07/29 03:42:51;;;;;;;4.80;2.33;;;;;;;14.42;70.68;101737.41;4787298;29;20437;-74
2022/07/29 03:45:19;;;;;;;2.63;2.03;;;;;;;14.40;70.60;101734.41;4786738;29;20056;-75
2022/07/29 03:47:50;;;;;;;8.77;2.30;;;;;;;14.40;70.29;101730.97;4786321;29;20083;-74
2022/07/29 03:50:22;;;;;;;2.97;2.00;;;;;;;14.40;70.64;101728.28;4785369;29;20051;-73
2022/07/29 03:52:49;;;;;;;2.63;2.25;;;;;;;14.40;70.84;101722.94;4786499;29;20555;-74
2022/07/29 03:55:16;;;;;;;2.60;2.40;;;;;;;14.40;70.71;101718.31;4786793;29;20101;-74
2022/07/29 03:57:46;;;;;;;1.90;1.73;;;;;;;14.41;70.44;101730.56;4786452;29;20055;-75
2022/07/29 04:00:15;;;;;;;4.20;2.22;;;;;;;14.40;70.77;101726.38;4786545;29;20589;-74
2022/07/29 04:02:46;;;;;;;2.05;1.75;;;;;;;14.41;70.79;101732.47;4786349;29;20070;-75
2022/07/29 04:05:14;;;;;;;5.07;2.13;;;;;;;14.38;70.63;101738.72;4786532;29;20502;-76
2022/07/29 04:07:50;;;;;;;2.78;2.33;;;;;;;14.38;70.70;101736.81;4785701;29;20554;-76
2022/07/29 04:10:18;;;;;;;6.47;2.00;;;;;;;14.38;70.71;101734.13;4786509;29;20055;-73
2022/07/29 04:12:57;;;;;;;4.63;2.10;;;;;;;14.39;70.77;101729.50;4786336;29;20052;-74
2022/07/29 04:15:24;;;;;;;4.80;2.08;;;;;;;14.38;71.10;101728.75;4785944;29;20564;-74
2022/07/29 04:17:51;;;;;;;3.97;2.10;;;;;;;14.38;71.13;101728.03;4785877;29;20062;-74
2022/07/29 04:20:18;;;;;;;5.50;2.15;;;;;;;14.39;71.10;101729.50;4784636;29;20124;-74
2022/07/29 04:22:44;;;;;;;4.90;2.03;;;;;;;14.37;70.76;101729.97;4786233;29;20462;-74
2022/07/29 04:25:11;;;;;;;6.22;2.60;;;;;;;14.37;70.91;101727.28;4785936;29;20128;-74
2022/07/29 04:27:59;;;;;;;2.90;2.20;;;;;;;14.35;71.55;101722.34;4785844;29;20052;-74
2022/07/29 04:30:24;;;;;;;2.53;2.33;;;;;;;14.36;71.25;101715.06;4785977;29;20068;-74
2022/07/29 04:32:50;;;;;;;4.47;2.22;;;;;;;14.35;71.01;101722.34;4786275;29;20548;-74
2022/07/29 04:35:17;;;;;;;4.20;1.90;;;;;;;14.34;70.85;101723.53;4785860;29;20055;-74
2022/07/29 04:37:44;;;;;;;2.17;1.98;;;;;;;14.37;71.15;101723.84;4786111;29;20463;-74
2022/07/29 04:40:11;;;;;;;3.53;2.45;;;;;;;14.35;71.06;101727.72;4785929;29;20048;-74
2022/07/29 04:42:38;;;;;;;2.05;1.95;;;;;;;14.37;70.63;101726.53;4785959;29;20052;-74
2022/07/29 04:45:13;;;;;;;2.72;1.98;;;;;;;14.39;71.07;101726.84;4786078;29;20488;-74
2022/07/29 04:47:41;;;;;;;2.70;2.03;;;;;;;14.39;70.85;101727.59;4787898;29;20071;-75
2022/07/29 04:50:08;;;;;;;3.75;2.05;;;;;;;14.40;70.92;101741.69;4788717;29;20055;-74
2022/07/29 04:52:35;;;;;;;2.28;2.10;;;;;;;14.41;70.90;101729.78;4788903;29;20051;-74
2022/07/29 04:55:03;;;;;;;2.38;2.17;;;;;;;14.41;70.93;101735.16;4789076;29;20059;-74
2022/07/29 04:57:30;;;;;;;4.00;1.90;;;;;;;14.39;71.02;101727.59;4789077;29;20055;-75
2022/07/29 04:59:56;;;;;;;3.05;2.40;;;;;;;14.39;71.04;101726.84;4789348;29;20056;-74
2022/07/29 05:02:23;;;;;;;3.45;2.25;;;;;;;14.38;70.97;101726.09;4787558;29;20048;-73
2022/07/29 05:04:49;;;;;;;4.10;2.33;;;;;;;14.37;70.88;101726.53;4788503;29;20056;-74
2022/07/29 05:07:16;;;;;;;3.50;2.10;;;;;;;14.38;71.09;101731.44;4789189;29;20048;-74
2022/07/29 05:09:43;;;;;;;5.53;2.35;;;;;;;14.38;71.22;101738.72;4789045;29;20471;-74
2022/07/29 05:12:09;;;;;;;4.70;2.30;;;;;;;14.40;71.18;101736.34;4788909;29;20055;-74
2022/07/29 05:14:36;;;;;;;2.97;2.08;;;;;;;14.42;71.71;101739.34;4788810;29;20059;-74
2022/07/29 05:17:02;;;;;;;2.63;2.40;;;;;;;14.44;71.63;101729.69;4788602;29;20062;-74
2022/07/29 05:19:29;;;;;;;3.83;2.20;;;;;;;14.46;71.17;101739.97;4788352;29;20052;-74
2022/07/29 05:21:55;;;;;;;3.17;2.03;;;;;;;14.47;71.46;101730.75;4788733;29;20055;-74
2022/07/29 05:24:22;;;;;;;5.65;2.40;;;;;;;14.48;71.83;101738.34;4788694;29;20060;-74
2022/07/29 05:26:48;;;;;;;7.43;2.70;;;;;;;14.52;71.15;101735.53;4788958;29;20047;-74
2022/07/29 05:29:15;;;;;;;3.78;2.35;;;;;;;14.57;71.51;101740.31;4788621;29;20060;-74
2022/07/29 05:32:02;;;;;;;8.70;2.60;;;;;;;14.60;71.37;101747.47;4788669;29;20105;-74
2022/07/29 05:34:28;;;;;;;5.72;2.33;;;;;;;14.63;70.67;101747.31;4788185;29;20514;-74
2022/07/29 05:36:55;;;;;;;3.42;2.58;;;;;;;14.70;70.74;101751.66;4788446;29;21044;-74
2022/07/29 05:39:22;;;;;;;3.35;2.30;;;;;;;14.79;70.55;101756.28;4788446;29;20529;-74
2022/07/29 05:42:09;;;;;;;4.95;2.35;;;;;;;14.87;69.89;101755.53;4786828;29;20131;-74
2022/07/29 05:44:37;;;;;;;3.33;2.60;;;;;;;14.95;70.05;101751.41;4788431;29;20090;-74
2022/07/29 05:47:04;;;;;;;8.38;2.70;;;;;;;15.09;69.54;101754.69;4787557;29;20066;-74
2022/07/29 05:49:31;;;;;;;4.28;2.60;;;;;;;15.22;68.43;101752.59;4788193;29;20052;-74
2022/07/29 05:51:58;;;;;;;3.85;2.17;;;;;;;15.27;69.15;101754.69;4788350;29;20052;-74
2022/07/29 05:54:25;;;;;;;7.68;2.33;;;;;;;15.35;68.78;101753.19;4788492;29;20063;-74
2022/07/29 05:56:52;;;;;;;2.58;2.40;;;;;;;15.38;68.86;101755.00;4788425;29;20474;-74
2022/07/29 05:59:18;;;;;;;5.28;2.40;;;;;;;15.60;68.14;101760.94;4788446;29;20052;-74
2022/07/29 06:01:44;;;;;;;4.57;2.53;;;;;;;16.50;65.48;101763.81;4787820;29;20063;-74
2022/07/29 06:04:11;;;;;;;2.53;2.15;;;;;;;17.58;61.39;101771.59;4787205;29;20054;-74
2022/07/29 06:06:38;;;;;;;4.18;2.60;;;;;;;18.22;59.06;101770.19;4771657;29;20060;-74
2022/07/29 06:09:04;;;;;;;3.08;2.08;;;;;;;18.23;58.88;101758.97;4787879;29;20052;-75
2022/07/29 06:11:38;;;;;;;3.67;2.17;;;;;;;17.91;58.80;101757.25;4788554;29;20056;-75
2022/07/29 06:14:04;;;;;;;7.05;2.28;;;;;;;17.91;59.21;101766.06;4788083;29;20075;-75
2022/07/29 06:16:31;;;;;;;2.45;2.33;;;;;;;17.85;59.46;101762.53;4787483;29;20047;-75
2022/07/29 06:18:57;;;;;;;3.60;2.20;;;;;;;17.78;58.94;101759.47;4788114;29;20048;-76
2022/07/29 06:21:24;;;;;;;4.10;2.63;;;;;;;17.62;59.34;101769.44;4771748;29;20521;-72
2022/07/29 06:23:50;;;;;;;2.97;2.78;;;;;;;17.26;59.88;101777.84;4787833;29;20375;-73
2022/07/29 06:26:17;;;;;;;2.30;2.20;;;;;;;17.17;60.82;101792.13;4788301;29;20052;-75
2022/07/29 06:28:43;;;;;;;7.85;2.72;;;;;;;17.03;61.09;101795.50;4787673;29;20056;-74
2022/07/29 06:31:10;;;;;;;4.25;2.42;;;;;;;16.96;61.81;101799.28;4787180;29;20084;-74
2022/07/29 06:33:36;;;;;;;2.60;2.40;;;;;;;16.80;61.64;101794.28;4787977;29;20051;-74
2022/07/29 06:36:05;;;;;;;3.00;2.55;;;;;;;16.73;62.88;101796.59;4787627;29;20438;-74
2022/07/29 06:38:33;;;;;;;9.00;2.63;;;;;;;16.68;62.76;101795.28;4786230;29;20060;-74
2022/07/29 06:41:12;;;;;;;2.63;2.40;;;;;;;16.83;62.98;101798.75;4787719;29;20052;-74
2022/07/29 06:43:41;;;;;;;2.50;2.30;;;;;;;17.06;62.26;101793.84;4787537;29;20114;-74
2022/07/29 06:46:19;;;;;;;9.50;2.83;;;;;;;17.29;61.08;101793.06;4787508;29;20050;-74
2022/07/29 06:48:47;;;;;;;3.47;2.15;;;;;;;17.62;61.08;101799.06;4787033;29;20096;-75
2022/07/29 06:51:14;;;;;;;4.55;2.13;;;;;;;17.89;59.91;101797.38;4787460;29;20541;-75
2022/07/29 06:53:42;;;;;;;7.97;2.47;;;;;;;17.90;59.25;101804.97;4787392;29;20052;-75
2022/07/29 06:56:32;;;;;;;2.50;2.30;;;;;;;18.02;59.29;101807.84;4787384;29;20059;-75
2022/07/29 06:59:06;;;;;;;2.70;2.35;;;;;;;18.23;58.14;101804.78;4787132;29;20064;-75
2022/07/29 07:01:32;;;;;;;4.97;2.60;;;;;;;18.23;58.47;101796.69;4787128;29;20051;-74
2022/07/29 07:03:59;;;;;;;2.78;2.40;;;;;;;18.27;58.17;101796.50;4787523;29;20489;-76
2022/07/29 07:06:26;;;;;;;7.05;3.00;;;;;;;18.35;58.34;101804.94;4787264;29;20514;-74
2022/07/29 07:08:52;;;;;;;2.53;2.15;;;;;;;18.65;57.38;101803.69;4786777;29;20066;-72
2022/07/29 07:11:19;;;;;;;2.88;2.67;;;;;;;19.07;57.57;101810.59;4787475;29;20044;-74
2022/07/29 07:13:45;;;;;;;5.97;2.63;;;;;;;19.43;55.84;101804.63;4787148;29;20502;-74
2022/07/29 07:16:12;;;;;;;5.07;2.95;;;;;;;19.63;54.79;101803.84;4785170;29;20063;-75
2022/07/29 07:18:39;;;;;;;4.10;2.60;;;;;;;19.72;54.52;101802.94;4787089;29;20056;-75
2022/07/29 07:21:05;;;;;;;4.70;2.38;;;;;;;20.02;54.56;101801.47;4786999;29;20489;-74
2022/07/29 07:23:32;;;;;;;7.97;2.50;;;;;;;20.18;53.32;101805.53;4787120;29;20047;-74
2022/07/29 07:25:58;;;;;;;4.13;3.22;;;;;;;20.24;53.14;101804.34;4787004;29;20048;-74
2022/07/29 07:28:25;;;;;;;2.78;2.47;;;;;;;20.37;53.75;101806.66;4786679;29;20059;-74
2022/07/29 07:30:52;;;;;;;6.47;3.33;;;;;;;20.51;52.79;101802.34;4786391;29;20054;-74
2022/07/29 07:33:19;;;;;;;3.95;2.35;;;;;;;20.63;52.26;101798.47;4787253;29;20086;-73
2022/07/29 07:35:46;;;;;;;2.85;2.58;;;;;;;20.93;51.70;101796.16;4786967;29;20532;-74
2022/07/29 07:38:13;;;;;;;4.93;2.65;;;;;;;21.02;51.80;101793.22;4786826;29;20051;-74
2022/07/29 07:40:40;;;;;;;7.00;2.40;;;;;;;21.28;52.15;101782.25;4786750;29;20052;-74
2022/07/29 07:43:06;;;;;;;3.25;2.42;;;;;;;21.41;51.51;101785.25;4786477;29;20047;-75
2022/07/29 07:45:33;;;;;;;2.70;2.50;;;;;;;21.44;50.22;101783.53;4786850;29;20514;-75
2022/07/29 07:47:59;;;;;;;2.80;2.60;;;;;;;21.22;50.97;101784.19;4786258;29;20068;-75
2022/07/29 07:50:26;;;;;;;7.93;3.22;;;;;;;21.27;51.43;101780.78;4786599;29;20501;-74
2022/07/29 07:52:57;;;;;;;4.40;2.17;;;;;;;21.44;50.32;101792.38;4786584;29;20124;-74
2022/07/29 07:55:25;;;;;;;4.32;2.90;;;;;;;21.37;50.76;101784.00;4786501;29;20060;-75
2022/07/29 07:57:51;;;;;;;9.32;2.78;;;;;;;21.40;50.64;101791.16;4786114;29;20051;-75
2022/07/29 08:00:18;;;;;;;2.97;2.60;;;;;;;21.37;50.53;101779.31;4785618;29;20059;-75
2022/07/29 08:02:48;;;;;;;6.78;2.70;;;;;;;21.27;50.53;101784.22;4785714;29;20056;-75
2022/07/29 08:05:18;;;;;;;3.08;2.53;;;;;;;21.26;50.29;101780.03;4786678;29;20424;-75
2022/07/29 08:07:46;;;;;;;5.00;2.53;;;;;;;21.26;51.00;101773.88;4786297;29;20105;-75
2022/07/29 08:10:14;;;;;;;3.83;2.40;;;;;;;21.24;51.63;101771.66;4786347;29;20056;-75
2022/07/29 08:12:43;;;;;;;2.78;2.55;;;;;;;21.20;51.42;101779.25;4786328;29;20116;-75
2022/07/29 08:15:09;;;;;;;5.90;2.67;;;;;;;21.20;50.93;101773.81;4786175;29;20058;-75
2022/07/29 08:17:36;;;;;;;4.80;2.25;;;;;;;21.22;50.96;101778.78;4786390;29;20563;-74
2022/07/29 08:20:03;;;;;;;2.92;2.70;;;;;;;21.13;51.25;101776.28;4786268;29;20539;-73
2022/07/29 08:22:29;;;;;;;3.00;2.40;;;;;;;21.25;50.95;101770.44;4785096;29;20043;-73
2022/07/29 08:24:56;;;;;;;3.92;2.35;;;;;;;21.34;50.60;101772.16;4786095;29;20089;-74
2022/07/29 08:27:23;;;;;;;5.40;2.55;;;;;;;21.47;51.38;101782.53;4785993;29;20056;-73
2022/07/29 08:30:09;;;;;;;2.63;2.42;;;;;;;21.86;50.53;101777.88;4786329;29;20535;-73
2022/07/29 08:32:36;;;;;;;6.97;2.60;;;;;;;22.18;49.84;101783.78;4785960;29;20125;-73
2022/07/29 08:35:19;;;;;;;10.30;2.58;;;;;;;22.21;49.04;101777.38;4785065;29;20063;-74
2022/07/29 08:37:47;;;;;;;7.18;2.70;;;;;;;22.12;49.40;101785.03;4786237;29;20059;-74
2022/07/29 08:40:14;;;;;;;2.75;2.53;;;;;;;22.18;49.34;101781.09;4786254;29;20497;-75
2022/07/29 08:42:41;;;;;;;6.97;2.55;;;;;;;21.98;49.41;101786.03;4784332;29;20058;-74
2022/07/29 08:45:08;;;;;;;4.60;2.60;;;;;;;21.93;49.73;101792.91;4786125;29;20063;-74
2022/07/29 08:47:39;;;;;;;6.40;2.70;;;;;;;22.10;49.32;101787.50;4785554;29;20056;-74
2022/07/29 08:50:07;;;;;;;3.42;2.70;;;;;;;22.32;49.21;101784.75;4786076;29;20058;-74
2022/07/29 08:52:37;;;;;;;4.70;2.67;;;;;;;22.76;47.68;101786.59;4785992;29;20058;-74
2022/07/29 08:55:05;;;;;;;12.05;2.42;;;;;;;22.89;46.91;101794.22;4785671;29;20055;-74
2022/07/29 08:57:33;;;;;;;5.85;2.83;;;;;;;22.94;46.53;101791.47;4769513;29;20047;-74
2022/07/29 09:00:06;;;;;;;3.53;2.10;;;;;;;23.24;46.18;101791.56;4786168;29;20434;-74
2022/07/29 09:02:44;;;;;;;6.28;2.67;;;;;;;23.50;45.34;101801.31;4786230;29;20075;-74
2022/07/29 09:05:13;;;;;;;7.38;2.90;;;;;;;23.56;44.69;101794.63;4785786;29;20052;-74
2022/07/29 09:07:42;;;;;;;8.07;2.65;;;;;;;23.76;45.58;101792.72;4785680;29;20512;-74
2022/07/29 09:10:09;;;;;;;5.15;2.58;;;;;;;24.10;44.70;101783.03;4785274;29;20114;-74
2022/07/29 09:12:36;;;;;;;2.50;2.30;;;;;;;24.28;44.37;101787.09;4785368;29;20052;-73
2022/07/29 09:15:04;;;;;;;4.78;2.60;;;;;;;24.45;43.88;101781.44;4785644;29;20056;-75
2022/07/29 09:17:49;;;;;;;4.43;2.30;;;;;;;24.65;44.00;101789.16;4785522;29;20911;-75
2022/07/29 09:20:18;;;;;;;2.28;2.08;;;;;;;24.78;42.06;101781.06;4785915;29;20052;-77
2022/07/29 09:22:53;;;;;;;6.45;2.20;;;;;;;24.49;41.60;101788.09;4785642;29;20059;-76
2022/07/29 09:25:33;;;;;;;5.80;1.92;;;;;;;24.46;40.99;101783.66;4785351;29;20056;-76
2022/07/29 09:28:14;;;;;;;2.30;2.13;;;;;;;24.60;42.00;101793.41;4784460;29;20048;-76
2022/07/29 09:30:54;;;;;;;5.57;2.53;;;;;;;24.88;41.31;101784.88;4785354;29;20468;-76
2022/07/29 09:33:22;;;;;;;5.03;1.90;;;;;;;25.06;40.85;101790.88;4786690;29;20518;-76
2022/07/29 09:36:06;;;;;;;3.20;2.22;;;;;;;25.15;40.75;101793.25;4788825;29;20067;-77
2022/07/29 09:38:33;;;;;;;4.97;2.22;;;;;;;25.35;40.39;101783.78;4788517;29;20059;-76
2022/07/29 09:41:03;;;;;;;2.38;2.17;;;;;;;25.65;40.01;101780.88;4788188;29;20062;-75
2022/07/29 09:43:32;;;;;;;5.53;2.00;;;;;;;25.83;39.33;101774.63;4788422;29;20821;-75
2022/07/29 09:46:17;;;;;;;3.33;2.03;;;;;;;26.05;39.68;101781.66;4772260;29;20169;-76
2022/07/29 09:48:44;;;;;;;5.43;2.22;;;;;;;26.10;38.71;101780.84;4788329;29;20068;-76
2022/07/29 09:51:20;;;;;;;2.53;2.30;;;;;;;26.17;37.99;101775.50;4788320;29;20052;-75
2022/07/29 09:54:26;;;;;;;4.18;2.30;;;;;;;25.81;39.18;101768.94;4788002;29;20055;-76
2022/07/29 09:56:53;;;;;;;5.28;2.50;;;;;;;25.64;39.35;101771.94;4788566;29;20054;-74
2022/07/29 09:59:22;;;;;;;3.45;2.22;;;;;;;25.39;39.59;101771.34;4787157;29;20111;-79
2022/07/29 10:01:49;;;;;;;7.03;2.55;;;;;;;25.77;39.28;101779.44;4788558;29;20489;-77
2022/07/29 10:04:17;;;;;;;6.25;2.17;;;;;;;25.83;39.28;101774.63;4788504;29;20442;-76
2022/07/29 10:07:01;;;;;;;3.85;2.20;;;;;;;25.66;38.66;101777.63;4788158;29;20117;-74
2022/07/29 10:09:32;;;;;;;2.50;2.17;;;;;;;25.24;38.88;101779.97;4786354;29;20202;-75
2022/07/29 10:12:14;;;;;;;2.55;2.10;;;;;;;25.34;39.52;101777.59;4788318;29;20109;-75
2022/07/29 10:14:41;;;;;;;6.00;2.85;;;;;;;25.52;40.25;101782.28;4788100;29;20422;-73
2022/07/29 10:17:10;;;;;;;17.17;3.92;;;;;;;25.48;40.41;101779.13;4788816;29;20051;-73
2022/07/29 10:19:38;;;;;;;14.50;3.47;;;;;;;25.34;39.37;101782.31;4787706;29;20064;-74
2022/07/29 10:22:08;;;;;;;6.32;2.60;;;;;;;25.23;39.78;101785.94;4787709;29;20075;-74
2022/07/29 10:24:35;;;;;;;4.97;3.03;;;;;;;25.07;39.15;101784.19;4787312;29;20052;-73
2022/07/29 10:27:03;;;;;;;5.63;2.60;;;;;;;25.21;40.19;101783.72;4787857;29;20472;-74
2022/07/29 10:29:33;;;;;;;3.58;2.67;;;;;;;25.73;39.95;101785.19;4787542;29;20047;-74
2022/07/29 10:32:34;;;;;;;6.70;3.28;;;;;;;26.27;39.11;101780.53;4771535;29;20067;-74
2022/07/29 10:35:34;;;;;;;11.27;3.20;;;;;;;26.70;39.03;101780.94;4788171;29;20560;-74
2022/07/29 10:38:34;;;;;;;6.75;2.85;;;;;;;26.88;38.80;101782.78;4787026;29;20092;-74
2022/07/29 10:41:28;;;;;;;3.00;2.80;;;;;;;26.75;37.61;101784.81;4787756;29;20056;-77
2022/07/29 10:44:18;;;;;;;5.30;2.92;;;;;;;26.56;38.27;101785.69;4786628;29;20048;-76
2022/07/29 10:46:50;;;;;;;6.72;3.38;;;;;;;26.53;37.96;101784.00;4787493;29;20062;-75
2022/07/29 10:49:24;;;;;;;6.28;3.45;;;;;;;26.62;39.00;101776.66;4787992;29;20083;-75
2022/07/29 10:51:52;;;;;;;3.33;3.00;;;;;;;26.80;37.92;101770.28;4786961;29;20056;-76
2022/07/29 10:54:35;;;;;;;5.85;2.95;;;;;;;27.04;38.23;101785.72;4787922;29;20079;-76
2022/07/29 10:57:17;;;;;;;4.93;2.63;;;;;;;27.14;36.51;101782.00;4787589;29;20054;-74
2022/07/29 11:00:10;;;;;;;7.80;2.90;;;;;;;26.94;36.56;101782.66;4787511;29;20052;-73
2022/07/29 11:02:43;;;;;;;4.45;3.10;;;;;;;26.86;37.48;101777.13;4786909;29;20083;-73
2022/07/29 11:05:13;;;;;;;5.18;2.88;;;;;;;26.75;38.09;101782.09;4786821;29;20464;-73
2022/07/29 11:08:12;;;;;;;10.85;3.15;;;;;;;26.88;38.22;101784.78;4770491;29;20176;-73
2022/07/29 11:10:47;;;;;;;10.95;3.30;;;;;;;26.71;38.43;101787.13;4787217;29;20060;-73
2022/07/29 11:13:46;;;;;;;4.13;3.53;;;;;;;26.62;38.59;101782.84;4786073;29;20482;-72
2022/07/29 11:16:15;;;;;;;5.20;3.20;;;;;;;26.63;37.95;101772.66;4787159;29;20067;-72
2022/07/29 11:19:10;;;;;;;4.72;3.65;;;;;;;26.64;38.65;101780.31;4785966;29;20113;-72
2022/07/29 11:21:38;;;;;;;3.47;3.20;;;;;;;26.66;38.50;101786.00;4786410;29;20048;-74
2022/07/29 11:24:28;;;;;;;4.00;3.60;;;;;;;26.98;39.23;101779.63;4786975;29;20055;-74
2022/07/29 11:27:14;;;;;;;3.38;3.17;;;;;;;27.09;38.83;101780.13;4785707;29;20062;-74
2022/07/29 11:29:54;;;;;;;7.30;3.63;;;;;;;26.60;39.20;101776.44;4787226;29;20139;-74
2022/07/29 11:32:23;;;;;;;4.82;3.60;;;;;;;26.40;39.61;101773.09;4785760;29;20056;-72
2022/07/29 11:35:12;;;;;;;3.63;3.33;;;;;;;26.65;39.84;101778.31;4785332;29;20055;-74
2022/07/29 11:37:45;;;;;;;3.75;3.15;;;;;;;26.71;39.00;101778.94;4780533;29;20534;-74
2022/07/29 11:40:21;;;;;;;9.05;3.28;;;;;;;26.73;39.40;101781.88;4786604;29;20520;-74
2022/07/29 11:42:48;;;;;;;4.93;3.08;;;;;;;27.06;38.61;101780.47;4787116;29;20578;-74
2022/07/29 11:45:23;;;;;;;3.30;2.70;;;;;;;27.02;38.48;101771.84;4786971;29;20532;-71
2022/07/29 11:48:16;;;;;;;2.97;2.78;;;;;;;27.13;37.53;101777.81;4786504;29;20525;-73